Time;durP1;ratioP1;P1;durP2;ratioP2;P2;SDS_P1;SDS_P2;PMS_P1;PMS_P2;Temp;Humidity;BMP_temperature;BMP_pressure;BME280_temperature;BME280_humidity;BME280_pressure;Samples;Min_cycle;Max_cycle;Signal;HPM_P1;HPM_P2
2023/08/02 00:00:11;;;;;;;3.73;3.40;;;23.40;70.30;;;24.08;50.54;94312.84;5074112;28;20446;-57
2023/08/02 00:02:38;;;;;;;5.07;4.40;;;23.50;70.40;;;24.08;49.81;94318.22;5077281;28;20490;-57
2023/08/02 00:05:06;;;;;;;5.13;3.80;;;23.40;70.30;;;24.08;50.15;94319.03;5071086;28;20454;-64
2023/08/02 00:07:33;;;;;;;9.23;3.50;;;23.50;70.40;;;24.09;50.52;94323.34;5077309;28;20449;-64
2023/08/02 00:10:03;;;;;;;5.87;4.20;;;23.50;70.40;;;24.10;50.49;94316.09;5070457;28;20511;-64
2023/08/02 00:12:31;;;;;;;5.60;3.80;;;23.50;70.40;;;24.10;49.98;94322.28;5077903;28;20533;-58
2023/08/02 00:14:59;;;;;;;7.47;3.70;;;23.50;70.60;;;24.09;49.89;94326.03;5073929;28;20504;-60
2023/08/02 00:17:26;;;;;;;4.27;4.00;;;23.50;70.60;;;24.09;50.47;94330.59;5075116;28;20527;-58
2023/08/02 00:19:53;;;;;;;4.60;4.20;;;23.50;70.60;;;24.09;50.39;94330.59;5069183;28;20781;-65
2023/08/02 00:22:20;;;;;;;4.77;4.30;;;23.50;71.30;;;24.08;50.53;94323.59;5077442;28;20489;-59
2023/08/02 00:24:48;;;;;;;4.60;4.10;;;23.50;70.40;;;24.08;50.60;94323.59;5075181;28;20458;-57
2023/08/02 00:27:15;;;;;;;5.13;3.80;;;23.50;70.50;;;24.09;50.22;94327.91;5074310;28;20526;-63
2023/08/02 00:29:43;;;;;;;4.90;4.50;;;23.50;70.40;;;24.07;49.48;94327.31;5078556;28;20465;-57
2023/08/02 00:32:11;;;;;;;4.57;4.17;;;23.40;70.20;;;24.04;50.04;94317.84;5074545;28;21160;-64
2023/08/02 00:34:38;;;;;;;4.40;4.10;;;23.40;70.20;;;24.06;49.86;94329.22;5073196;28;20507;-58
2023/08/02 00:37:05;;;;;;;8.97;4.20;;;23.40;70.30;;;24.06;49.50;94331.06;5073048;28;20989;-57
2023/08/02 00:39:32;;;;;;;6.53;3.63;;;23.40;70.20;;;24.06;50.21;94334.56;5075664;28;20459;-63
2023/08/02 00:41:59;;;;;;;5.87;3.87;;;23.40;71.10;;;24.09;50.30;94319.84;5073200;28;20525;-64
2023/08/02 00:44:27;;;;;;;3.90;3.70;;;23.40;70.30;;;24.11;50.41;94333.88;5075858;28;20468;-57
2023/08/02 00:46:55;;;;;;;3.93;3.70;;;23.50;70.50;;;24.10;49.50;94324.16;5074057;28;20467;-64
2023/08/02 00:49:24;;;;;;;6.23;4.30;;;23.50;70.40;;;24.10;50.19;94324.97;5070325;28;20458;-64
2023/08/02 00:51:51;;;;;;;5.67;4.73;;;23.40;70.20;;;24.11;50.46;94323.94;5077137;28;20482;-59
2023/08/02 00:54:18;;;;;;;7.80;4.20;;;23.50;70.90;;;24.10;50.31;94324.16;5070262;28;20451;-64
2023/08/02 00:56:45;;;;;;;8.07;4.47;;;23.50;70.40;;;24.10;49.87;94316.91;5076212;28;20482;-57
2023/08/02 00:59:12;;;;;;;5.40;4.37;;;23.50;70.90;;;24.12;49.93;94328.25;5077570;28;20524;-64
2023/08/02 01:01:40;;;;;;;7.30;4.13;;;23.50;71.00;;;24.10;50.45;94316.91;5075528;28;20730;-58
2023/08/02 01:04:08;;;;;;;4.00;3.67;;;23.50;71.60;;;24.12;50.71;94324.72;5071241;28;20497;-59
2023/08/02 01:06:39;;;;;;;5.60;4.70;;;23.50;71.40;;;24.12;50.39;94319.34;5073571;28;20527;-62
2023/08/02 01:09:09;;;;;;;11.33;3.90;;;23.50;71.80;;;24.11;51.11;94315.06;5068123;28;20499;-58
2023/08/02 01:11:39;;;;;;;7.00;4.30;;;23.50;71.90;;;24.09;51.04;94317.97;5072463;28;20583;-57
2023/08/02 01:14:07;;;;;;;4.57;4.27;;;23.50;72.20;;;24.09;51.21;94325.22;5071246;28;20917;-63
2023/08/02 01:16:35;;;;;;;4.67;4.27;;;23.50;72.30;;;24.09;50.57;94320.66;5067730;28;20466;-58
2023/08/02 01:19:02;;;;;;;6.63;4.37;;;23.50;72.60;;;24.09;50.67;94315.28;5078281;28;20518;-64
2023/08/02 01:21:31;;;;;;;4.73;4.17;;;23.50;72.60;;;24.09;51.17;94322.53;5073450;28;21053;-57
2023/08/02 01:23:58;;;;;;;6.43;4.70;;;23.50;72.80;;;24.07;51.27;94313.88;5071789;28;20486;-57
2023/08/02 01:26:25;;;;;;;5.63;4.70;;;23.40;72.80;;;24.05;51.28;94321.38;5070681;28;20475;-65
2023/08/02 01:28:53;;;;;;;5.87;5.23;;;23.50;73.20;;;24.03;51.05;94308.19;5072935;28;20458;-65
2023/08/02 01:31:20;;;;;;;5.70;4.70;;;23.40;72.70;;;24.00;51.78;94311.34;5066407;28;21062;-57
2023/08/02 01:33:51;;;;;;;4.40;4.00;;;23.40;73.00;;;23.99;52.05;94309.69;5073729;28;20458;-57
2023/08/02 01:36:18;;;;;;;5.80;5.30;;;23.40;73.50;;;23.97;51.76;94307.25;5072968;28;21013;-65
2023/08/02 01:38:46;;;;;;;10.43;4.20;;;23.40;73.40;;;23.92;51.97;94301.78;5070187;28;20460;-64
2023/08/02 01:41:14;;;;;;;9.63;5.40;;;23.30;73.40;;;23.90;52.04;94306.56;5075852;28;20470;-59
2023/08/02 01:43:41;;;;;;;9.30;4.73;;;23.30;73.70;;;23.89;52.09;94298.75;5068295;28;20486;-59
2023/08/02 01:46:08;;;;;;;7.97;5.03;;;23.30;74.10;;;23.88;51.74;94302.50;5070206;28;20466;-57
2023/08/02 01:48:35;;;;;;;16.00;4.87;;;23.30;74.20;;;23.85;52.22;94301.09;5076610;28;20957;-64
2023/08/02 01:51:02;;;;;;;8.57;4.70;;;23.30;74.20;;;23.84;52.07;94296.75;5070770;28;20470;-64
2023/08/02 01:53:30;;;;;;;5.63;4.40;;;23.20;74.40;;;23.84;52.51;94295.94;5072611;28;20446;-59
2023/08/02 01:55:58;;;;;;;5.17;4.67;;;23.20;74.60;;;23.84;52.34;94291.38;5073387;28;21131;-58
2023/08/02 01:58:25;;;;;;;8.37;5.33;;;23.30;75.20;;;23.78;52.22;94292.31;5070976;28;20446;-58
2023/08/02 02:00:53;;;;;;;6.80;5.60;;;23.20;75.00;;;23.75;51.89;94295.47;5078185;28;20528;-59
2023/08/02 02:03:20;;;;;;;5.83;5.33;;;23.20;74.70;;;23.68;52.15;94309.03;5069505;28;20499;-63
2023/08/02 02:05:53;;;;;;;6.00;5.37;;;23.10;75.10;;;23.61;52.39;94303.78;5069818;28;21297;-58
2023/08/02 02:08:21;;;;;;;7.23;4.70;;;23.00;75.00;;;23.56;52.37;94306.38;5071393;28;20446;-64
2023/08/02 02:10:51;;;;;;;6.90;5.70;;;23.00;75.60;;;23.56;52.48;94311.75;5069950;28;20625;-58
2023/08/02 02:13:22;;;;;;;6.03;5.03;;;23.00;75.70;;;23.55;52.73;94311.97;5075174;28;20450;-66
2023/08/02 02:15:49;;;;;;;6.53;5.63;;;23.00;76.00;;;23.57;53.46;94316.03;5069233;28;20474;-64
2023/08/02 02:18:16;;;;;;;6.97;5.13;;;23.00;76.40;;;23.58;53.12;94315.00;5074942;28;20491;-65
2023/08/02 02:20:44;;;;;;;5.67;5.10;;;23.00;76.50;;;23.58;53.28;94314.19;5068311;28;20905;-58
2023/08/02 02:23:11;;;;;;;5.33;4.77;;;23.00;76.30;;;23.55;53.53;94310.09;5070229;28;20513;-64
2023/08/02 02:25:38;;;;;;;9.93;5.00;;;22.90;76.30;;;23.54;53.50;94316.50;5074536;28;20474;-58
2023/08/02 02:28:06;;;;;;;8.20;5.83;;;22.90;76.30;;;23.51;53.61;94308.91;5071362;28;20488;-58
2023/08/02 02:30:34;;;;;;;5.73;5.20;;;22.90;76.30;;;23.48;53.63;94320.13;5069908;28;20477;-57
2023/08/02 02:33:03;;;;;;;7.20;4.93;;;22.90;76.40;;;;;;5070584;28;20508;-58
2023/08/02 02:35:30;;;;;;;5.67;4.33;;;22.90;76.60;;;23.48;53.19;94330.84;5072997;28;20469;-65
2023/08/02 02:37:58;;;;;;;7.53;4.80;;;22.80;76.80;;;23.48;53.62;94341.59;5070240;28;20446;-64
2023/08/02 02:40:25;;;;;;;6.33;4.30;;;22.90;76.30;;;23.44;53.53;94330.53;5068696;28;20475;-64
2023/08/02 02:42:53;;;;;;;9.90;4.60;;;22.90;76.30;;;23.40;53.19;94333.91;5072351;28;20604;-64
2023/08/02 02:45:20;;;;;;;7.80;4.60;;;22.80;76.20;;;23.34;53.42;94332.97;5070574;28;21023;-57
2023/08/02 02:47:48;;;;;;;12.13;4.70;;;22.80;76.20;;;23.32;53.20;94345.00;5073495;28;20466;-64
2023/08/02 02:50:16;;;;;;;4.60;4.30;;;22.70;76.50;;;23.29;53.26;94358.88;5069826;28;20473;-65
2023/08/02 02:52:43;;;;;;;8.73;4.83;;;22.70;77.00;;;23.25;52.99;94356.66;5069770;28;20451;-63
2023/08/02 02:55:10;;;;;;;6.17;4.50;;;22.70;77.00;;;23.27;53.87;94369.84;5074921;28;20767;-63
2023/08/02 02:57:37;;;;;;;6.80;4.60;;;22.70;77.20;;;23.27;53.17;94367.97;5067278;28;20455;-64
2023/08/02 03:00:08;;;;;;;8.20;4.77;;;22.70;77.00;;;23.23;53.56;94364.09;5080519;28;20470;-58
2023/08/02 03:02:35;;;;;;;3.83;3.63;;;22.60;76.20;;;23.21;53.79;94355.47;5067151;28;20450;-58
2023/08/02 03:05:04;;;;;;;4.90;4.50;;;22.60;76.50;;;23.20;53.45;94359.19;5076090;28;20491;-65
2023/08/02 03:07:32;;;;;;;6.63;4.93;;;22.60;76.10;;;23.17;52.89;94361.53;5067215;28;20528;-57
2023/08/02 03:09:59;;;;;;;7.83;4.50;;;22.60;76.10;;;23.14;53.47;94360.13;5071436;28;20959;-59
2023/08/02 03:12:26;;;;;;;4.67;4.27;;;22.60;76.30;;;23.14;53.50;94354.75;5072284;28;20450;-57
2023/08/02 03:14:54;;;;;;;5.90;4.63;;;22.50;76.40;;;23.13;53.33;94355.81;5068749;28;20466;-57
2023/08/02 03:17:21;;;;;;;5.30;4.80;;;22.50;76.50;;;23.12;53.23;94356.84;5072512;28;20567;-57
2023/08/02 03:19:48;;;;;;;6.33;4.83;;;22.60;76.80;;;23.11;53.12;94363.25;5069300;28;20939;-64
2023/08/02 03:22:17;;;;;;;7.60;5.63;;;22.60;76.60;;;23.08;52.78;94344.91;5071008;28;20855;-58
2023/08/02 03:24:44;;;;;;;7.43;4.77;;;22.50;76.60;;;23.06;53.25;94360.44;5069412;28;20815;-58
2023/08/02 03:27:11;;;;;;;4.97;3.73;;;22.50;76.50;;;23.04;53.03;94359.84;5067964;28;20470;-58
2023/08/02 03:29:38;;;;;;;5.10;4.70;;;22.50;76.80;;;23.04;53.54;94365.22;5074036;28;20470;-58
2023/08/02 03:32:07;;;;;;;4.30;4.00;;;22.50;77.20;;;23.06;53.06;94371.16;5068657;28;20512;-64
2023/08/02 03:34:34;;;;;;;7.17;4.77;;;22.50;77.10;;;23.07;53.11;94367.44;5073275;28;20966;-58
2023/08/02 03:37:01;;;;;;;7.43;4.97;;;22.50;77.20;;;23.06;53.46;94361.22;5068562;28;20474;-64
2023/08/02 03:39:30;;;;;;;8.40;5.33;;;22.50;77.20;;;23.06;53.35;94365.78;5073817;28;20475;-59
2023/08/02 03:41:57;;;;;;;5.60;5.10;;;22.50;77.30;;;23.07;53.91;94370.13;5068322;28;20462;-58
2023/08/02 03:44:24;;;;;;;6.70;5.73;;;22.50;77.30;;;23.07;53.34;94364.75;5076203;28;20866;-62
2023/08/02 03:46:52;;;;;;;5.00;4.60;;;22.50;77.30;;;23.07;53.80;94367.44;5065615;28;20514;-64
2023/08/02 03:49:19;;;;;;;6.37;5.80;;;22.50;77.50;;;23.06;53.19;94363.09;5069282;28;20462;-58
2023/08/02 03:51:47;;;;;;;5.40;4.57;;;22.50;77.30;;;23.04;53.43;94357.16;5073878;28;20469;-58
2023/08/02 03:54:14;;;;;;;5.40;5.00;;;22.50;77.60;;;23.05;53.38;94374.88;5076211;28;20576;-58
2023/08/02 03:56:42;;;;;;;5.43;5.03;;;22.50;77.60;;;23.07;54.03;94378.97;5069071;28;20525;-65
2023/08/02 03:59:10;;;;;;;8.00;5.30;;;22.50;77.70;;;23.08;53.20;94372.59;5071195;28;20450;-64
2023/08/02 04:01:37;;;;;;;5.97;5.10;;;22.50;77.70;;;23.11;53.56;94374.00;5071668;28;20898;-58
2023/08/02 04:04:04;;;;;;;11.73;5.27;;;22.50;77.90;;;23.12;53.38;94375.63;5069153;28;20548;-64
2023/08/02 04:06:32;;;;;;;9.57;6.20;;;22.50;78.00;;;23.17;53.97;94362.34;5069140;28;20547;-65
2023/08/02 04:08:59;;;;;;;8.80;5.77;;;22.60;78.10;;;23.18;53.46;94363.97;5069745;28;20457;-58
2023/08/02 04:11:27;;;;;;;6.53;5.90;;;22.60;77.70;;;23.19;53.65;94364.78;5068237;28;20474;-65
2023/08/02 04:13:55;;;;;;;11.63;5.67;;;22.60;77.30;;;23.19;53.18;94371.00;5073163;28;20454;-58
2023/08/02 04:16:23;;;;;;;6.73;5.90;;;22.60;77.40;;;23.19;52.81;94372.84;5071691;28;20546;-64
2023/08/02 04:18:50;;;;;;;9.33;6.07;;;22.60;77.20;;;23.17;53.77;94374.94;5075827;28;20823;-59
2023/08/02 04:21:19;;;;;;;7.00;5.50;;;22.60;77.30;;;23.17;53.22;94367.69;5070242;28;20470;-69
2023/08/02 04:23:47;;;;;;;11.00;6.73;;;22.60;77.90;;;23.22;53.81;94375.91;5071741;28;20486;-58
2023/08/02 04:26:15;;;;;;;11.57;6.10;;;22.60;78.30;;;23.26;54.03;94366.31;5076789;28;20523;-67
2023/08/02 04:28:42;;;;;;;8.53;6.27;;;22.60;78.20;;;23.33;53.56;94362.72;5074408;28;20461;-64
2023/08/02 04:31:10;;;;;;;7.27;6.67;;;22.70;78.20;;;23.38;53.84;94362.84;5073607;28;20987;-59
2023/08/02 04:33:38;;;;;;;7.13;6.17;;;22.80;78.20;;;23.42;53.25;94366.69;5069096;28;20458;-65
2023/08/02 04:36:05;;;;;;;10.00;7.03;;;22.80;77.80;;;23.48;52.96;94356.91;5079200;28;20536;-57
2023/08/02 04:38:33;;;;;;;8.70;7.80;;;22.90;78.50;;;23.50;52.70;94366.38;5069646;28;20450;-58
2023/08/02 04:41:00;;;;;;;11.23;6.27;;;22.90;77.30;;;23.51;53.64;94365.28;5073914;28;20902;-58
2023/08/02 04:43:27;;;;;;;11.20;5.57;;;22.90;77.60;;;23.56;53.93;94365.44;5078047;28;20528;-57
2023/08/02 04:45:54;;;;;;;9.50;6.87;;;22.90;78.50;;;23.62;54.02;94375.25;5069121;28;20480;-64
2023/08/02 04:48:23;;;;;;;12.10;6.90;;;23.00;78.70;;;23.69;53.51;94375.13;5075803;28;20503;-58
2023/08/02 04:50:50;;;;;;;6.60;5.87;;;23.10;78.70;;;23.80;53.36;94373.47;5072966;28;20535;-59
2023/08/02 04:53:18;;;;;;;11.63;5.57;;;23.20;78.80;;;23.90;53.41;94381.78;5074381;28;20455;-58
2023/08/02 04:55:45;;;;;;;7.97;5.93;;;23.30;78.90;;;23.99;53.77;94390.28;5077017;28;21158;-66
2023/08/02 04:58:12;;;;;;;7.47;5.60;;;23.30;78.40;;;24.08;53.56;94393.44;5072304;28;20466;-59
2023/08/02 05:00:39;;;;;;;18.63;6.23;;;23.40;78.40;;;24.12;53.03;94391.91;5079038;28;20481;-62
2023/08/02 05:03:07;;;;;;;10.00;6.10;;;23.50;78.10;;;24.17;52.84;94382.09;5069360;28;21035;-60
2023/08/02 05:05:35;;;;;;;11.87;7.17;;;23.50;77.90;;;24.23;52.77;94384.88;5073019;28;20564;-62
2023/08/02 05:08:03;;;;;;;8.83;6.27;;;23.60;77.90;;;24.26;53.58;94379.88;5077264;28;20458;-58
2023/08/02 05:10:30;;;;;;;13.77;8.27;;;23.60;77.90;;;24.29;52.94;94384.78;5072073;28;20479;-58
2023/08/02 05:12:57;;;;;;;10.83;7.70;;;23.70;77.50;;;24.31;53.22;94384.53;5073732;28;21352;-59
2023/08/02 05:15:24;;;;;;;15.70;7.70;;;23.70;77.20;;;24.33;53.25;94385.91;5073520;28;20471;-60
2023/08/02 05:17:52;;;;;;;20.30;7.40;;;23.70;77.60;;;24.38;53.21;94390.56;5072907;28;20547;-63
2023/08/02 05:20:19;;;;;;;13.67;7.30;;;23.80;77.80;;;24.42;53.27;94396.31;5073358;28;20523;-58
2023/08/02 05:22:47;;;;;;;8.27;7.10;;;23.80;77.60;;;24.44;53.21;94402.25;5073033;28;20918;-59
2023/08/02 05:25:15;;;;;;;14.33;6.93;;;23.80;77.30;;;24.46;53.06;94400.97;5076274;28;20669;-62
2023/08/02 05:27:42;;;;;;;13.93;7.37;;;23.80;77.30;;;24.50;52.33;94401.31;5068882;28;20959;-57
2023/08/02 05:30:10;;;;;;;9.70;6.70;;;23.90;77.40;;;24.52;53.00;94397.34;5072146;28;20469;-58
2023/08/02 05:32:38;;;;;;;12.30;6.63;;;23.90;77.40;;;24.56;52.97;94408.41;5074687;28;20999;-62
2023/08/02 05:35:06;;;;;;;22.20;6.63;;;23.90;77.40;;;24.62;52.82;94409.38;5069039;28;20454;-64
2023/08/02 05:37:33;;;;;;;14.40;7.03;;;24.00;77.50;;;24.69;52.53;94421.63;5074894;28;20457;-59
2023/08/02 05:40:02;;;;;;;9.63;5.67;;;24.00;77.50;;;24.79;52.48;94414.81;5071518;28;20800;-63
2023/08/02 05:42:29;;;;;;;5.60;5.10;;;24.10;77.60;;;24.87;52.34;94419.81;5074124;28;20837;-59
2023/08/02 05:44:56;;;;;;;7.37;5.70;;;24.20;77.00;;;24.95;52.31;94427.47;5070750;28;20558;-59
2023/08/02 05:47:23;;;;;;;13.00;6.10;;;24.30;76.60;;;25.03;51.59;94429.78;5076071;28;20953;-62
2023/08/02 05:49:50;;;;;;;9.27;6.03;;;24.40;76.70;;;25.16;51.83;94433.22;5073812;28;20446;-63
2023/08/02 05:52:18;;;;;;;11.90;7.03;;;24.50;76.50;;;25.28;51.01;94439.38;5071256;28;20441;-57
2023/08/02 05:54:45;;;;;;;8.30;6.40;;;24.60;76.30;;;25.39;51.94;94435.84;5070594;28;20525;-63
2023/08/02 05:57:14;;;;;;;7.67;6.63;;;24.70;76.10;;;25.56;51.33;94435.88;5075170;28;20470;-63
2023/08/02 05:59:41;;;;;;;13.53;7.60;;;24.90;75.90;;;25.76;50.71;94440.75;5076568;28;20445;-59
2023/08/02 06:02:08;;;;;;;8.27;6.43;;;25.00;75.40;;;25.90;50.13;94441.25;5068225;28;20838;-59
2023/08/02 06:04:37;;;;;;;12.60;7.20;;;25.20;74.70;;;26.04;50.10;94436.38;5069415;28;20964;-63
2023/08/02 06:07:05;;;;;;;12.13;7.67;;;25.30;74.40;;;26.23;49.88;94428.81;5076409;28;20994;-58
2023/08/02 06:09:32;;;;;;;12.37;7.80;;;25.50;73.90;;;26.46;49.22;94435.84;5068615;28;20451;-59
2023/08/02 06:11:59;;;;;;;13.43;8.77;;;25.70;73.70;;;26.75;49.21;94446.47;5076162;28;20986;-63
2023/08/02 06:14:28;;;;;;;19.00;8.30;;;25.90;72.90;;;27.02;48.71;94437.63;5068691;28;20454;-62
2023/08/02 06:16:55;;;;;;;10.27;8.50;;;26.20;72.60;;;27.30;48.09;94446.56;5074775;28;20462;-63
2023/08/02 06:19:22;;;;;;;11.07;8.20;;;26.50;72.10;;;27.57;47.62;94441.16;5072038;28;20450;-58
2023/08/02 06:21:49;;;;;;;11.33;8.27;;;26.70;71.10;;;27.81;46.84;94441.63;5069040;28;20471;-59
2023/08/02 06:24:17;;;;;;;12.70;9.57;;;27.00;70.60;;;28.02;46.86;94449.91;5070919;28;20517;-63
2023/08/02 06:26:44;;;;;;;11.33;8.00;;;27.20;69.60;;;28.18;46.27;94448.09;5068118;28;20982;-58
2023/08/02 06:29:11;;;;;;;18.80;8.33;;;27.40;69.40;;;28.37;46.18;94438.50;5072461;28;20454;-58
2023/08/02 06:31:40;;;;;;;9.37;8.50;;;27.60;69.00;;;28.57;46.47;94437.00;5069092;28;20474;-63
2023/08/02 06:34:07;;;;;;;12.03;7.73;;;27.70;68.60;;;28.81;45.54;94431.97;5074982;28;20453;-65
2023/08/02 06:36:38;;;;;;;10.67;7.87;;;27.90;67.60;;;29.05;45.69;94442.31;5069061;28;20478;-59
2023/08/02 06:39:05;;;;;;;11.33;8.90;;;28.20;67.30;;;29.22;45.15;94434.81;5071645;28;20954;-59
2023/08/02 06:41:32;;;;;;;12.40;8.27;;;28.40;66.30;;;29.31;44.15;94430.50;5073012;28;20951;-64
2023/08/02 06:43:59;;;;;;;9.90;9.00;;;28.50;65.70;;;29.46;43.96;94423.47;5070214;28;20458;-63
2023/08/02 06:46:27;;;;;;;8.63;7.83;;;28.70;65.70;;;29.61;44.02;94420.78;5073968;28;20497;-58
2023/08/02 06:48:55;;;;;;;9.07;8.23;;;28.80;65.40;;;29.82;43.60;94418.09;5068120;28;20504;-63
2023/08/02 06:51:22;;;;;;;11.20;8.13;;;29.00;65.30;;;30.02;43.67;94418.09;5070433;28;20461;-63
2023/08/02 06:53:51;;;;;;;10.43;8.13;;;29.20;64.80;;;30.24;43.73;94422.41;5073206;28;20663;-58
2023/08/02 06:56:18;;;;;;;13.90;9.70;;;29.40;64.30;;;30.37;42.52;94427.22;5069405;28;20232;-63
2023/08/02 06:58:46;;;;;;;19.43;9.13;;;29.60;63.40;;;30.48;43.18;94432.66;5072890;28;20220;-59
2023/08/02 07:01:14;;;;;;;14.10;8.97;;;29.70;63.60;;;30.59;43.25;94434.25;5073286;28;20725;-57
2023/08/02 07:03:41;;;;;;;14.13;8.67;;;29.80;63.00;;;30.69;42.66;94436.13;5073224;28;20288;-63
2023/08/02 07:06:10;;;;;;;8.77;8.07;;;29.90;62.60;;;30.91;41.96;94443.94;5067675;28;20236;-57
2023/08/02 07:08:38;;;;;;;9.20;8.30;;;30.10;62.40;;;31.16;41.27;94434.06;5074370;28;20761;-63
2023/08/02 07:11:05;;;;;;;13.40;10.00;;;30.30;61.60;;;31.35;41.08;94436.94;5067079;28;20227;-59
2023/08/02 07:13:32;;;;;;;12.73;8.60;;;30.50;61.10;;;31.32;40.98;94440.19;5074521;28;20199;-59
2023/08/02 07:16:00;;;;;;;15.77;9.30;;;30.60;60.50;;;31.31;41.30;94439.41;5068019;28;20258;-63
2023/08/02 07:18:27;;;;;;;10.93;9.83;;;30.50;60.70;;;31.44;41.39;94441.47;5068838;28;20196;-63
2023/08/02 07:20:54;;;;;;;17.43;9.40;;;30.60;60.90;;;31.63;41.21;94443.56;5072356;28;20223;-63
2023/08/02 07:23:23;;;;;;;10.93;9.30;;;30.70;60.80;;;31.80;41.01;94430.34;5071684;28;20567;-63
2023/08/02 07:25:50;;;;;;;16.60;9.60;;;30.90;60.50;;;32.02;40.49;94439.97;5072961;28;20287;-59
2023/08/02 07:28:17;;;;;;;13.43;9.52;;;31.10;60.00;;;32.27;40.35;94427.25;5070177;28;20238;-58
2023/08/02 07:30:45;;;;;;;16.85;10.15;;;31.30;59.70;;;32.51;40.01;94430.81;5070763;28;20300;-59
2023/08/02 07:33:12;;;;;;;13.95;8.90;;;31.50;59.30;;;32.75;39.97;94435.50;5068979;28;20208;-64
2023/08/02 07:35:39;;;;;;;15.75;9.75;;;31.80;59.10;;;32.93;39.67;94438.53;5069812;28;20235;-63
2023/08/02 07:38:06;;;;;;;10.23;8.82;;;32.00;58.80;;;33.15;39.29;94444.22;5073011;28;20208;-63
2023/08/02 07:40:35;;;;;;;10.55;9.52;;;32.20;58.50;;;33.31;39.48;94441.31;5067936;28;20223;-64
2023/08/02 07:43:02;;;;;;;20.92;8.68;;;32.40;58.00;;;33.36;38.90;94441.28;5068141;28;20257;-63
2023/08/02 07:45:29;;;;;;;20.55;9.77;;;32.50;57.90;;;33.45;39.16;94436.78;5077259;28;20648;-57
2023/08/02 07:47:57;;;;;;;12.82;10.30;;;32.50;57.90;;;33.54;38.19;94431.44;5067023;28;20290;-58
2023/08/02 07:50:24;;;;;;;14.10;9.45;;;32.60;57.40;;;33.72;38.77;94436.09;5074423;28;20219;-63
2023/08/02 07:52:51;;;;;;;11.32;8.52;;;32.80;57.90;;;33.93;38.29;94435.78;5067294;28;20197;-62
2023/08/02 07:55:18;;;;;;;14.02;8.60;;;32.90;57.40;;;34.10;37.99;94433.31;5071553;28;20231;-63
2023/08/02 07:57:47;;;;;;;9.13;8.30;;;33.10;57.30;;;34.36;37.49;94423.88;5073860;28;20212;-59
2023/08/02 08:00:15;;;;;;;9.90;8.88;;;33.40;57.00;;;34.62;37.84;94425.00;5075811;28;20272;-58
2023/08/02 08:02:43;;;;;;;11.43;9.40;;;33.60;56.60;;;34.90;37.00;94429.69;5074752;28;20329;-57
2023/08/02 08:05:10;;;;;;;15.30;9.25;;;33.90;56.30;;;35.17;36.98;94429.66;5071430;28;20289;-63
2023/08/02 08:07:37;;;;;;;10.40;9.30;;;34.20;55.90;;;35.34;36.92;94429.06;5073401;28;20588;-58
2023/08/02 08:10:06;;;;;;;9.93;8.90;;;34.40;54.80;;;35.39;35.89;94425.38;5075272;28;20212;-63
2023/08/02 08:12:33;;;;;;;13.25;9.23;;;34.50;54.30;;;35.52;35.90;94430.03;5072575;28;20222;-58
2023/08/02 08:15:02;;;;;;;9.88;8.85;;;34.60;54.20;;;35.79;35.83;94424.75;5077018;28;20207;-58
2023/08/02 08:17:29;;;;;;;10.25;9.20;;;34.80;53.80;;;36.03;35.71;94432.66;5072131;28;20248;-62
2023/08/02 08:19:57;;;;;;;16.83;8.57;;;35.00;53.90;;;36.26;35.00;94433.47;5076709;28;20609;-59
2023/08/02 08:22:28;;;;;;;10.98;8.90;;;35.30;53.50;;;36.51;34.68;94436.66;5071011;28;20310;-58
2023/08/02 08:24:56;;;;;;;11.95;8.73;;;35.50;53.00;;;36.76;34.72;94437.94;5072012;28;20215;-59
2023/08/02 08:27:23;;;;;;;8.50;7.68;;;35.80;52.80;;;37.04;34.47;94432.22;5076798;28;20216;-57
2023/08/02 08:29:50;;;;;;;17.75;8.25;;;36.00;52.30;;;37.26;33.76;94425.81;5072695;28;20701;-64
2023/08/02 08:32:20;;;;;;;11.52;9.13;;;36.30;51.80;;;37.44;33.72;94434.88;5075956;28;20273;-59
2023/08/02 08:34:47;;;;;;;15.25;7.82;;;36.50;51.30;;;37.54;33.07;94428.28;5074317;28;20208;-58
2023/08/02 08:37:14;;;;;;;7.70;7.10;;;36.60;50.40;;;37.61;33.22;94425.84;5075933;28;20219;-57
2023/08/02 08:39:41;;;;;;;7.97;7.18;;;36.70;50.30;;;37.71;32.93;94428.31;5072375;28;20208;-58
2023/08/02 08:42:10;;;;;;;8.50;7.13;;;36.80;49.90;;;37.82;32.54;94426.06;5079692;28;20234;-58
2023/08/02 08:44:38;;;;;;;9.10;7.70;;;36.90;49.50;;;37.90;32.67;94427.19;5069163;28;20189;-59
2023/08/02 08:47:06;;;;;;;7.32;6.72;;;37.00;49.50;;;37.98;32.09;94427.16;5077854;28;20268;-63
2023/08/02 08:49:35;;;;;;;13.00;7.55;;;37.10;49.60;;;38.10;32.04;94433.94;5069750;28;20661;-59
2023/08/02 08:52:05;;;;;;;7.63;6.78;;;37.20;49.00;;;38.26;31.78;94431.50;5080553;28;20582;-58
2023/08/02 08:54:32;;;;;;;8.32;7.20;;;37.30;48.50;;;38.36;31.43;94431.13;5076109;28;20200;-62
2023/08/02 08:57:00;;;;;;;11.25;7.20;;;37.40;48.00;;;38.47;31.51;94424.16;5077124;28;20219;-60
2023/08/02 08:59:27;;;;;;;7.45;6.15;;;37.50;48.20;;;38.64;30.39;94419.75;5079947;28;20196;-58
2023/08/02 09:01:54;;;;;;;7.25;6.60;;;37.70;47.30;;;38.75;31.04;94421.03;5071668;28;20708;-64
2023/08/02 09:04:21;;;;;;;6.43;5.82;;;37.80;47.20;;;38.86;29.71;94416.75;5075486;28;20277;-63
2023/08/02 09:06:50;;;;;;;6.90;6.40;;;37.90;46.20;;;38.98;30.05;94417.97;5074405;28;20703;-63
2023/08/02 09:09:17;;;;;;;8.77;6.25;;;38.00;46.30;;;38.91;29.79;94419.31;5078024;28;20203;-63
2023/08/02 09:11:45;;;;;;;6.95;6.32;;;38.00;45.80;;;38.86;30.07;94427.75;5070928;28;20216;-63
2023/08/02 09:14:13;;;;;;;6.78;6.00;;;38.00;45.90;;;38.86;30.21;94416.75;5078162;28;20253;-60
2023/08/02 09:16:57;;;;;;;9.25;6.70;;;38.00;45.80;;;38.88;29.20;94413.69;5076466;28;20231;-63
2023/08/02 09:19:26;;;;;;;5.90;5.47;;;38.00;45.20;;;38.92;29.87;94415.44;5074688;28;20279;-64
2023/08/02 09:22:08;;;;;;;10.73;5.93;;;38.00;45.60;;;39.04;28.99;94413.91;5069558;28;20216;-59
2023/08/02 09:24:36;;;;;;;4.90;4.50;;;38.10;44.40;;;39.07;29.31;94411.31;5075058;28;20765;-63
2023/08/02 09:27:05;;;;;;;6.53;5.28;;;38.20;44.50;;;39.09;28.83;94419.25;5068898;28;20228;-63
2023/08/02 09:29:47;;;;;;;8.40;4.22;;;38.20;43.70;;;39.01;27.76;94415.41;5071758;28;20570;-59
2023/08/02 09:32:15;;;;;;;5.78;5.35;;;38.20;43.30;;;38.92;28.68;94420.94;5069656;28;20251;-61
2023/08/02 09:34:44;;;;;;;4.68;4.32;;;38.10;43.40;;;38.92;28.23;94411.88;5073622;28;20207;-64
2023/08/02 09:37:13;;;;;;;7.00;4.78;;;38.10;42.50;;;38.77;27.51;94412.44;5075823;28;20683;-63
2023/08/02 09:39:41;;;;;;;6.53;4.97;;;37.90;42.10;;;38.55;27.30;94417.03;5069982;28;20200;-58
2023/08/02 09:42:13;;;;;;;5.32;4.82;;;37.80;42.50;;;38.27;28.21;94414.69;5076167;28;20563;-58
2023/08/02 09:44:42;;;;;;;5.22;4.72;;;37.50;43.20;;;38.06;28.44;94414.53;5068850;28;20649;-58
2023/08/02 09:47:10;;;;;;;4.93;4.53;;;37.30;43.50;;;38.10;28.40;94415.50;5079463;28;20227;-59
2023/08/02 09:49:37;;;;;;;6.38;5.80;;;37.20;43.70;;;38.27;28.70;94422.09;5069192;28;20243;-59
2023/08/02 09:52:05;;;;;;;15.20;5.35;;;37.30;43.90;;;38.41;28.45;94409.00;5072955;28;20313;-58
2023/08/02 09:54:34;;;;;;;6.32;5.70;;;37.40;43.40;;;38.54;28.30;94418.16;5073282;28;20662;-63
2023/08/02 09:57:02;;;;;;;7.85;5.82;;;37.60;42.90;;;38.61;28.28;94412.13;5070827;28;20235;-64
2023/08/02 09:59:30;;;;;;;6.13;4.88;;;37.70;43.00;;;38.61;27.53;94414.88;5075428;28;20188;-64
2023/08/02 10:01:58;;;;;;;6.63;5.05;;;37.70;41.90;;;38.48;27.75;94398.28;5071856;28;20656;-63
2023/08/02 10:04:25;;;;;;;10.48;5.22;;;37.60;42.60;;;38.36;27.26;94409.16;5072178;28;20295;-58
2023/08/02 10:06:56;;;;;;;6.38;4.38;;;37.50;42.10;;;38.14;28.01;94407.41;5072886;28;20247;-61
2023/08/02 10:09:26;;;;;;;8.65;5.07;;;37.30;42.40;;;37.91;28.30;94409.56;5071491;28;20200;-59
2023/08/02 10:11:59;;;;;;;4.72;4.43;;;37.10;42.70;;;37.74;27.79;94408.47;5073896;28;20606;-58
2023/08/02 10:14:26;;;;;;;5.05;4.60;;;37.00;42.40;;;37.60;28.06;94397.63;5071376;28;20195;-63
2023/08/02 10:16:53;;;;;;;11.98;4.80;;;36.80;42.60;;;37.60;28.18;94394.06;5069107;28;20220;-64
2023/08/02 10:19:21;;;;;;;10.10;4.60;;;36.80;42.70;;;37.68;28.29;94405.03;5073108;28;20291;-63